sensor_id;sensor_type;location;lat;lon;timestamp;temperature;humidity
820;DHT22;392;48.838;2.322;2023-04-10T00:00:52;14.60;20.70
820;DHT22;392;48.838;2.322;2023-04-10T00:03:22;14.50;20.80
820;DHT22;392;48.838;2.322;2023-04-10T00:05:49;14.40;20.90
820;DHT22;392;48.838;2.322;2023-04-10T00:08:21;14.30;21.00
820;DHT22;392;48.838;2.322;2023-04-10T00:10:48;14.30;21.00
820;DHT22;392;48.838;2.322;2023-04-10T00:13:16;14.30;20.90
820;DHT22;392;48.838;2.322;2023-04-10T00:15:43;14.30;21.50
820;DHT22;392;48.838;2.322;2023-04-10T00:18:11;14.20;21.10
820;DHT22;392;48.838;2.322;2023-04-10T00:20:38;14.20;21.20
820;DHT22;392;48.838;2.322;2023-04-10T00:23:05;14.10;21.10
820;DHT22;392;48.838;2.322;2023-04-10T00:25:34;14.10;21.10
820;DHT22;392;48.838;2.322;2023-04-10T00:28:01;14.20;21.00
820;DHT22;392;48.838;2.322;2023-04-10T00:30:28;14.20;20.80
820;DHT22;392;48.838;2.322;2023-04-10T00:32:56;14.20;20.90
820;DHT22;392;48.838;2.322;2023-04-10T00:35:23;14.10;20.90
820;DHT22;392;48.838;2.322;2023-04-10T00:37:51;14.10;21.10
820;DHT22;392;48.838;2.322;2023-04-10T00:40:19;14.10;21.10
820;DHT22;392;48.838;2.322;2023-04-10T00:42:48;14.10;21.10
820;DHT22;392;48.838;2.322;2023-04-10T00:45:15;14.10;21.10
820;DHT22;392;48.838;2.322;2023-04-10T00:47:43;14.10;21.10
820;DHT22;392;48.838;2.322;2023-04-10T00:50:10;14.10;21.10
820;DHT22;392;48.838;2.322;2023-04-10T00:52:37;14.10;21.10
820;DHT22;392;48.838;2.322;2023-04-10T00:55:05;14.10;21.20
820;DHT22;392;48.838;2.322;2023-04-10T00:57:33;14.10;21.10
820;DHT22;392;48.838;2.322;2023-04-10T01:00:04;14.10;21.10
820;DHT22;392;48.838;2.322;2023-04-10T01:02:31;14.10;21.30
820;DHT22;392;48.838;2.322;2023-04-10T01:04:59;14.10;21.80
820;DHT22;392;48.838;2.322;2023-04-10T01:07:34;14.10;21.40
820;DHT22;392;48.838;2.322;2023-04-10T01:10:16;14.00;21.50
820;DHT22;392;48.838;2.322;2023-04-10T01:12:53;14.00;21.60
820;DHT22;392;48.838;2.322;2023-04-10T01:15:26;14.00;21.80
820;DHT22;392;48.838;2.322;2023-04-10T01:17:57;14.00;21.80
820;DHT22;392;48.838;2.322;2023-04-10T01:20:30;14.00;21.90
820;DHT22;392;48.838;2.322;2023-04-10T01:23:18;13.90;21.90
820;DHT22;392;48.838;2.322;2023-04-10T01:25:56;13.90;22.00
820;DHT22;392;48.838;2.322;2023-04-10T01:28:57;13.90;22.10
820;DHT22;392;48.838;2.322;2023-04-10T01:31:33;13.80;22.40
820;DHT22;392;48.838;2.322;2023-04-10T01:34:06;13.80;22.50
820;DHT22;392;48.838;2.322;2023-04-10T01:36:37;13.70;22.60
820;DHT22;392;48.838;2.322;2023-04-10T01:39:07;13.60;22.90
820;DHT22;392;48.838;2.322;2023-04-10T01:41:36;13.60;22.90
820;DHT22;392;48.838;2.322;2023-04-10T01:44:07;13.60;23.10
820;DHT22;392;48.838;2.322;2023-04-10T01:46:39;13.60;23.20
820;DHT22;392;48.838;2.322;2023-04-10T01:49:09;13.60;23.10
820;DHT22;392;48.838;2.322;2023-04-10T01:51:37;13.70;22.90
820;DHT22;392;48.838;2.322;2023-04-10T01:54:09;13.70;22.90
820;DHT22;392;48.838;2.322;2023-04-10T01:56:37;13.70;22.90
820;DHT22;392;48.838;2.322;2023-04-10T01:59:07;13.70;23.00
820;DHT22;392;48.838;2.322;2023-04-10T02:01:34;13.70;23.10
820;DHT22;392;48.838;2.322;2023-04-10T02:04:02;13.70;23.10
820;DHT22;392;48.838;2.322;2023-04-10T02:06:39;13.70;23.10
820;DHT22;392;48.838;2.322;2023-04-10T02:09:19;13.70;23.00
820;DHT22;392;48.838;2.322;2023-04-10T02:11:54;13.70;23.00
820;DHT22;392;48.838;2.322;2023-04-10T02:14:30;13.70;23.00
820;DHT22;392;48.838;2.322;2023-04-10T02:17:00;13.70;23.10
820;DHT22;392;48.838;2.322;2023-04-10T02:19:30;13.70;23.20
820;DHT22;392;48.838;2.322;2023-04-10T02:21:58;13.60;24.00
820;DHT22;392;48.838;2.322;2023-04-10T02:24:26;13.50;23.60
820;DHT22;392;48.838;2.322;2023-04-10T02:26:53;13.50;23.60
820;DHT22;392;48.838;2.322;2023-04-10T02:29:22;13.50;23.60
820;DHT22;392;48.838;2.322;2023-04-10T02:31:51;13.50;23.60
820;DHT22;392;48.838;2.322;2023-04-10T02:34:18;13.50;23.60
820;DHT22;392;48.838;2.322;2023-04-10T02:36:45;13.50;23.60
820;DHT22;392;48.838;2.322;2023-04-10T02:39:13;13.50;23.40
820;DHT22;392;48.838;2.322;2023-04-10T02:41:47;13.50;23.40
820;DHT22;392;48.838;2.322;2023-04-10T02:44:14;13.40;23.40
820;DHT22;392;48.838;2.322;2023-04-10T02:46:42;13.50;23.30
820;DHT22;392;48.838;2.322;2023-04-10T02:49:12;13.50;23.20
820;DHT22;392;48.838;2.322;2023-04-10T02:51:39;13.50;23.20
820;DHT22;392;48.838;2.322;2023-04-10T02:54:06;13.50;23.20
820;DHT22;392;48.838;2.322;2023-04-10T02:56:38;13.40;23.40
820;DHT22;392;48.838;2.322;2023-04-10T02:59:05;13.40;23.50
820;DHT22;392;48.838;2.322;2023-04-10T03:01:33;13.40;23.50
820;DHT22;392;48.838;2.322;2023-04-10T03:04:00;13.40;23.50
820;DHT22;392;48.838;2.322;2023-04-10T03:06:34;13.30;23.40
820;DHT22;392;48.838;2.322;2023-04-10T03:09:01;13.40;23.50
820;DHT22;392;48.838;2.322;2023-04-10T03:11:29;13.30;23.50
820;DHT22;392;48.838;2.322;2023-04-10T03:13:56;13.30;23.50
820;DHT22;392;48.838;2.322;2023-04-10T03:16:24;13.30;23.50
820;DHT22;392;48.838;2.322;2023-04-10T03:18:51;13.30;23.50
820;DHT22;392;48.838;2.322;2023-04-10T03:21:19;13.20;23.40
820;DHT22;392;48.838;2.322;2023-04-10T03:23:49;13.10;23.60
820;DHT22;392;48.838;2.322;2023-04-10T03:26:17;13.10;23.90
820;DHT22;392;48.838;2.322;2023-04-10T03:28:44;13.10;23.90
820;DHT22;392;48.838;2.322;2023-04-10T03:31:11;13.00;24.00
820;DHT22;392;48.838;2.322;2023-04-10T03:33:41;13.00;24.10
820;DHT22;392;48.838;2.322;2023-04-10T03:36:09;12.90;24.30
820;DHT22;392;48.838;2.322;2023-04-10T03:38:36;12.90;24.40
820;DHT22;392;48.838;2.322;2023-04-10T03:41:08;12.90;24.40
820;DHT22;392;48.838;2.322;2023-04-10T03:43:36;12.90;24.60
820;DHT22;392;48.838;2.322;2023-04-10T03:46:04;12.90;24.80
820;DHT22;392;48.838;2.322;2023-04-10T03:48:33;12.80;24.80
820;DHT22;392;48.838;2.322;2023-04-10T03:51:01;12.80;25.00
820;DHT22;392;48.838;2.322;2023-04-10T03:53:29;12.80;25.30
820;DHT22;392;48.838;2.322;2023-04-10T03:56:01;12.80;25.20
820;DHT22;392;48.838;2.322;2023-04-10T03:58:30;12.70;25.20
820;DHT22;392;48.838;2.322;2023-04-10T04:00:57;12.70;25.30
820;DHT22;392;48.838;2.322;2023-04-10T04:03:34;12.70;25.50
820;DHT22;392;48.838;2.322;2023-04-10T04:06:21;12.60;25.50
820;DHT22;392;48.838;2.322;2023-04-10T04:09:09;12.60;25.60
820;DHT22;392;48.838;2.322;2023-04-10T04:11:55;12.60;25.80
820;DHT22;392;48.838;2.322;2023-04-10T04:14:53;12.60;25.80
820;DHT22;392;48.838;2.322;2023-04-10T04:17:39;12.60;26.10
820;DHT22;392;48.838;2.322;2023-04-10T04:20:07;12.50;26.30
820;DHT22;392;48.838;2.322;2023-04-10T04:22:54;12.50;26.40
820;DHT22;392;48.838;2.322;2023-04-10T04:25:30;12.40;26.50
820;DHT22;392;48.838;2.322;2023-04-10T04:28:12;12.30;26.80
820;DHT22;392;48.838;2.322;2023-04-10T04:31:00;12.20;27.00
820;DHT22;392;48.838;2.322;2023-04-10T04:33:49;12.10;27.10
820;DHT22;392;48.838;2.322;2023-04-10T04:36:28;12.10;27.50
820;DHT22;392;48.838;2.322;2023-04-10T04:39:16;12.10;27.80
820;DHT22;392;48.838;2.322;2023-04-10T04:42:13;12.00;27.70
820;DHT22;392;48.838;2.322;2023-04-10T04:45:19;12.00;27.70
820;DHT22;392;48.838;2.322;2023-04-10T04:48:11;12.00;28.00
820;DHT22;392;48.838;2.322;2023-04-10T04:51:01;11.90;28.70
820;DHT22;392;48.838;2.322;2023-04-10T04:53:45;11.80;28.40
820;DHT22;392;48.838;2.322;2023-04-10T04:56:27;11.80;28.50
820;DHT22;392;48.838;2.322;2023-04-10T04:59:13;11.80;28.50
820;DHT22;392;48.838;2.322;2023-04-10T05:01:59;11.90;28.60
820;DHT22;392;48.838;2.322;2023-04-10T05:04:46;12.00;28.50
820;DHT22;392;48.838;2.322;2023-04-10T05:07:43;12.00;28.20
820;DHT22;392;48.838;2.322;2023-04-10T05:10:30;12.00;28.20
820;DHT22;392;48.838;2.322;2023-04-10T05:13:08;12.00;28.40
820;DHT22;392;48.838;2.322;2023-04-10T05:15:53;11.90;28.70
820;DHT22;392;48.838;2.322;2023-04-10T05:18:55;11.90;28.70
820;DHT22;392;48.838;2.322;2023-04-10T05:21:56;12.00;28.60
820;DHT22;392;48.838;2.322;2023-04-10T05:24:23;12.00;28.60
820;DHT22;392;48.838;2.322;2023-04-10T05:27:13;11.90;28.60
820;DHT22;392;48.838;2.322;2023-04-10T05:29:58;11.90;28.70
820;DHT22;392;48.838;2.322;2023-04-10T05:32:40;12.00;28.90
820;DHT22;392;48.838;2.322;2023-04-10T05:35:26;11.90;28.90
820;DHT22;392;48.838;2.322;2023-04-10T05:37:59;12.00;29.10
820;DHT22;392;48.838;2.322;2023-04-10T05:40:38;12.00;29.00
820;DHT22;392;48.838;2.322;2023-04-10T05:43:22;12.10;28.90
820;DHT22;392;48.838;2.322;2023-04-10T05:46:00;12.10;28.70
820;DHT22;392;48.838;2.322;2023-04-10T05:48:51;12.00;28.80
820;DHT22;392;48.838;2.322;2023-04-10T05:51:45;12.10;29.10
820;DHT22;392;48.838;2.322;2023-04-10T05:54:39;12.10;29.20
820;DHT22;392;48.838;2.322;2023-04-10T05:57:27;12.20;28.70
820;DHT22;392;48.838;2.322;2023-04-10T06:00:15;12.20;28.90
820;DHT22;392;48.838;2.322;2023-04-10T06:03:02;12.20;29.10
820;DHT22;392;48.838;2.322;2023-04-10T06:05:31;12.30;29.00
820;DHT22;392;48.838;2.322;2023-04-10T06:08:03;12.40;28.60
820;DHT22;392;48.838;2.322;2023-04-10T06:10:32;12.40;28.60
820;DHT22;392;48.838;2.322;2023-04-10T06:12:59;12.40;28.50
820;DHT22;392;48.838;2.322;2023-04-10T06:15:27;12.40;28.40
820;DHT22;392;48.838;2.322;2023-04-10T06:17:56;12.50;28.60
820;DHT22;392;48.838;2.322;2023-04-10T06:20:23;12.60;28.40
820;DHT22;392;48.838;2.322;2023-04-10T06:22:50;12.70;28.20
820;DHT22;392;48.838;2.322;2023-04-10T06:25:18;12.70;27.70
820;DHT22;392;48.838;2.322;2023-04-10T06:27:46;12.80;27.70
820;DHT22;392;48.838;2.322;2023-04-10T06:30:14;12.80;27.80
820;DHT22;392;48.838;2.322;2023-04-10T06:32:41;12.80;27.60
820;DHT22;392;48.838;2.322;2023-04-10T06:35:09;12.80;27.50
820;DHT22;392;48.838;2.322;2023-04-10T06:37:37;12.70;27.90
820;DHT22;392;48.838;2.322;2023-04-10T06:40:06;12.80;28.20
820;DHT22;392;48.838;2.322;2023-04-10T06:42:34;12.80;27.60
820;DHT22;392;48.838;2.322;2023-04-10T06:45:23;12.80;27.50
820;DHT22;392;48.838;2.322;2023-04-10T06:47:50;12.70;27.70
820;DHT22;392;48.838;2.322;2023-04-10T06:50:18;12.70;28.10
820;DHT22;392;48.838;2.322;2023-04-10T06:52:45;12.80;28.10
820;DHT22;392;48.838;2.322;2023-04-10T06:55:13;12.80;27.80
820;DHT22;392;48.838;2.322;2023-04-10T06:57:40;12.80;27.60
820;DHT22;392;48.838;2.322;2023-04-10T07:00:09;12.90;27.80
820;DHT22;392;48.838;2.322;2023-04-10T07:02:38;12.80;27.80
820;DHT22;392;48.838;2.322;2023-04-10T07:05:06;12.90;27.90
820;DHT22;392;48.838;2.322;2023-04-10T07:07:33;12.90;27.40
820;DHT22;392;48.838;2.322;2023-04-10T07:10:01;13.00;27.60
820;DHT22;392;48.838;2.322;2023-04-10T07:12:28;13.20;27.50
820;DHT22;392;48.838;2.322;2023-04-10T07:14:56;13.30;27.10
820;DHT22;392;48.838;2.322;2023-04-10T07:17:23;13.40;26.40
820;DHT22;392;48.838;2.322;2023-04-10T07:19:52;13.30;26.40
820;DHT22;392;48.838;2.322;2023-04-10T07:22:19;13.20;26.60
820;DHT22;392;48.838;2.322;2023-04-10T07:24:46;13.10;27.10
820;DHT22;392;48.838;2.322;2023-04-10T07:27:14;13.10;27.40
820;DHT22;392;48.838;2.322;2023-04-10T07:29:41;13.30;26.90
820;DHT22;392;48.838;2.322;2023-04-10T07:32:09;13.40;26.50
820;DHT22;392;48.838;2.322;2023-04-10T07:34:36;13.50;26.20
820;DHT22;392;48.838;2.322;2023-04-10T07:37:04;13.50;26.50
820;DHT22;392;48.838;2.322;2023-04-10T07:39:32;13.60;25.70
820;DHT22;392;48.838;2.322;2023-04-10T07:41:59;13.50;26.30
820;DHT22;392;48.838;2.322;2023-04-10T07:44:26;13.60;26.50
820;DHT22;392;48.838;2.322;2023-04-10T07:46:54;13.80;26.20
820;DHT22;392;48.838;2.322;2023-04-10T07:49:22;13.80;25.60
820;DHT22;392;48.838;2.322;2023-04-10T07:51:49;13.70;25.90
820;DHT22;392;48.838;2.322;2023-04-10T07:54:18;13.90;26.20
820;DHT22;392;48.838;2.322;2023-04-10T07:56:45;14.00;25.40
820;DHT22;392;48.838;2.322;2023-04-10T07:59:12;14.00;25.40
820;DHT22;392;48.838;2.322;2023-04-10T08:01:40;14.20;25.40
820;DHT22;392;48.838;2.322;2023-04-10T08:04:07;14.50;24.90
820;DHT22;392;48.838;2.322;2023-04-10T08:06:34;14.60;23.90
820;DHT22;392;48.838;2.322;2023-04-10T08:09:01;14.60;23.80
820;DHT22;392;48.838;2.322;2023-04-10T08:11:31;14.80;23.70
820;DHT22;392;48.838;2.322;2023-04-10T08:14:01;15.00;23.10
820;DHT22;392;48.838;2.322;2023-04-10T08:16:32;15.20;22.50
820;DHT22;392;48.838;2.322;2023-04-10T08:19:00;15.10;22.40
820;DHT22;392;48.838;2.322;2023-04-10T08:21:28;15.00;22.70
820;DHT22;392;48.838;2.322;2023-04-10T08:23:58;15.10;22.70
820;DHT22;392;48.838;2.322;2023-04-10T08:26:26;15.10;22.30
820;DHT22;392;48.838;2.322;2023-04-10T08:28:57;15.20;22.30
820;DHT22;392;48.838;2.322;2023-04-10T08:31:26;15.20;22.10
820;DHT22;392;48.838;2.322;2023-04-10T08:33:54;15.20;22.10
820;DHT22;392;48.838;2.322;2023-04-10T08:36:21;15.10;22.50
820;DHT22;392;48.838;2.322;2023-04-10T08:38:49;15.10;22.70
820;DHT22;392;48.838;2.322;2023-04-10T08:41:17;15.20;22.50
820;DHT22;392;48.838;2.322;2023-04-10T08:43:45;15.20;22.40
820;DHT22;392;48.838;2.322;2023-04-10T08:46:15;15.10;22.50
820;DHT22;392;48.838;2.322;2023-04-10T08:48:46;15.20;23.10
820;DHT22;392;48.838;2.322;2023-04-10T08:51:17;15.10;23.20
820;DHT22;392;48.838;2.322;2023-04-10T08:53:47;15.20;23.20
820;DHT22;392;48.838;2.322;2023-04-10T08:56:17;15.20;23.20
820;DHT22;392;48.838;2.322;2023-04-10T08:58:45;15.40;23.20
820;DHT22;392;48.838;2.322;2023-04-10T09:01:12;15.40;23.20
820;DHT22;392;48.838;2.322;2023-04-10T09:03:42;15.40;23.80
820;DHT22;392;48.838;2.322;2023-04-10T09:06:09;15.40;23.90
820;DHT22;392;48.838;2.322;2023-04-10T09:08:36;15.30;24.30
820;DHT22;392;48.838;2.322;2023-04-10T09:11:04;15.40;24.00
820;DHT22;392;48.838;2.322;2023-04-10T09:13:37;15.50;23.90
820;DHT22;392;48.838;2.322;2023-04-10T09:16:06;15.50;23.70
820;DHT22;392;48.838;2.322;2023-04-10T09:18:46;15.60;23.70
820;DHT22;392;48.838;2.322;2023-04-10T09:21:17;15.60;23.60
820;DHT22;392;48.838;2.322;2023-04-10T09:23:46;15.60;24.00
820;DHT22;392;48.838;2.322;2023-04-10T09:26:25;15.60;24.10
820;DHT22;392;48.838;2.322;2023-04-10T09:28:58;15.60;24.20
820;DHT22;392;48.838;2.322;2023-04-10T09:31:28;15.60;24.30
820;DHT22;392;48.838;2.322;2023-04-10T09:34:12;15.60;24.20
820;DHT22;392;48.838;2.322;2023-04-10T09:36:40;15.70;24.20
820;DHT22;392;48.838;2.322;2023-04-10T09:39:09;15.70;24.30
820;DHT22;392;48.838;2.322;2023-04-10T09:41:49;15.80;24.50
820;DHT22;392;48.838;2.322;2023-04-10T09:44:18;16.00;24.30
820;DHT22;392;48.838;2.322;2023-04-10T09:46:54;16.10;23.40
820;DHT22;392;48.838;2.322;2023-04-10T09:49:23;16.10;23.60
820;DHT22;392;48.838;2.322;2023-04-10T09:51:50;16.20;23.40
820;DHT22;392;48.838;2.322;2023-04-10T09:54:18;16.20;23.30
820;DHT22;392;48.838;2.322;2023-04-10T09:57:01;16.30;22.80
820;DHT22;392;48.838;2.322;2023-04-10T09:59:29;16.30;22.80
820;DHT22;392;48.838;2.322;2023-04-10T10:01:56;16.40;22.40
820;DHT22;392;48.838;2.322;2023-04-10T10:04:26;16.60;21.60
820;DHT22;392;48.838;2.322;2023-04-10T10:06:53;16.60;21.70
820;DHT22;392;48.838;2.322;2023-04-10T10:09:21;16.60;21.60
820;DHT22;392;48.838;2.322;2023-04-10T10:11:51;16.70;21.00
820;DHT22;392;48.838;2.322;2023-04-10T10:14:20;16.60;21.00
820;DHT22;392;48.838;2.322;2023-04-10T10:16:49;16.50;21.20
820;DHT22;392;48.838;2.322;2023-04-10T10:19:22;16.20;22.10
820;DHT22;392;48.838;2.322;2023-04-10T10:21:56;16.00;22.90
820;DHT22;392;48.838;2.322;2023-04-10T10:24:27;15.90;24.30
820;DHT22;392;48.838;2.322;2023-04-10T10:26:56;15.90;23.80
820;DHT22;392;48.838;2.322;2023-04-10T10:29:27;15.80;23.60
820;DHT22;392;48.838;2.322;2023-04-10T10:31:59;15.80;24.00
820;DHT22;392;48.838;2.322;2023-04-10T10:34:29;15.90;23.60
820;DHT22;392;48.838;2.322;2023-04-10T10:36:57;15.90;23.70
820;DHT22;392;48.838;2.322;2023-04-10T10:39:29;15.80;23.20
820;DHT22;392;48.838;2.322;2023-04-10T10:42:06;15.80;23.40
820;DHT22;392;48.838;2.322;2023-04-10T10:44:40;15.90;23.30
820;DHT22;392;48.838;2.322;2023-04-10T10:47:15;15.80;23.30
820;DHT22;392;48.838;2.322;2023-04-10T10:49:55;15.90;23.10
820;DHT22;392;48.838;2.322;2023-04-10T10:52:36;16.00;22.60
820;DHT22;392;48.838;2.322;2023-04-10T10:55:27;16.20;22.60
820;DHT22;392;48.838;2.322;2023-04-10T10:57:57;16.40;20.60
820;DHT22;392;48.838;2.322;2023-04-10T11:01:05;16.40;21.10
820;DHT22;392;48.838;2.322;2023-04-10T11:03:35;16.50;21.60
820;DHT22;392;48.838;2.322;2023-04-10T11:06:06;16.70;21.10
820;DHT22;392;48.838;2.322;2023-04-10T11:08:42;16.90;20.00
820;DHT22;392;48.838;2.322;2023-04-10T11:11:18;17.20;19.70
820;DHT22;392;48.838;2.322;2023-04-10T11:14:12;17.60;19.30
820;DHT22;392;48.838;2.322;2023-04-10T11:16:46;17.80;17.40
820;DHT22;392;48.838;2.322;2023-04-10T11:19:14;17.70;17.10
820;DHT22;392;48.838;2.322;2023-04-10T11:22:09;17.70;17.30
820;DHT22;392;48.838;2.322;2023-04-10T11:25:07;17.70;15.60
820;DHT22;392;48.838;2.322;2023-04-10T11:27:40;17.70;15.40
820;DHT22;392;48.838;2.322;2023-04-10T11:30:41;17.60;15.70
820;DHT22;392;48.838;2.322;2023-04-10T11:33:16;17.70;16.80
820;DHT22;392;48.838;2.322;2023-04-10T11:35:45;17.60;16.00
820;DHT22;392;48.838;2.322;2023-04-10T11:38:17;17.50;16.50
820;DHT22;392;48.838;2.322;2023-04-10T11:41:00;17.40;16.80
820;DHT22;392;48.838;2.322;2023-04-10T11:43:29;17.40;16.20
820;DHT22;392;48.838;2.322;2023-04-10T11:46:04;17.30;16.50
820;DHT22;392;48.838;2.322;2023-04-10T11:48:33;17.40;16.30
820;DHT22;392;48.838;2.322;2023-04-10T11:51:06;17.40;16.30
820;DHT22;392;48.838;2.322;2023-04-10T11:53:36;17.40;16.10
820;DHT22;392;48.838;2.322;2023-04-10T11:56:05;17.50;16.30
820;DHT22;392;48.838;2.322;2023-04-10T11:58:40;17.50;14.50
820;DHT22;392;48.838;2.322;2023-04-10T12:01:07;17.30;15.00
820;DHT22;392;48.838;2.322;2023-04-10T12:03:40;17.30;15.00
820;DHT22;392;48.838;2.322;2023-04-10T12:06:09;17.40;14.30
820;DHT22;392;48.838;2.322;2023-04-10T12:08:40;17.50;14.50
820;DHT22;392;48.838;2.322;2023-04-10T12:11:10;17.40;14.00
820;DHT22;392;48.838;2.322;2023-04-10T12:13:38;17.40;14.50
820;DHT22;392;48.838;2.322;2023-04-10T12:16:07;17.30;14.20
820;DHT22;392;48.838;2.322;2023-04-10T12:18:35;17.30;14.70
820;DHT22;392;48.838;2.322;2023-04-10T12:21:04;17.30;14.30
820;DHT22;392;48.838;2.322;2023-04-10T12:23:32;17.20;14.50
820;DHT22;392;48.838;2.322;2023-04-10T12:26:09;17.20;15.00
820;DHT22;392;48.838;2.322;2023-04-10T12:28:40;17.20;15.30
820;DHT22;392;48.838;2.322;2023-04-10T12:31:08;17.20;15.70
820;DHT22;392;48.838;2.322;2023-04-10T12:33:35;17.30;15.90
820;DHT22;392;48.838;2.322;2023-04-10T12:36:03;17.30;16.10
820;DHT22;392;48.838;2.322;2023-04-10T12:38:35;17.30;16.20
820;DHT22;392;48.838;2.322;2023-04-10T12:41:03;17.30;16.50
820;DHT22;392;48.838;2.322;2023-04-10T12:43:34;17.30;16.50
820;DHT22;392;48.838;2.322;2023-04-10T12:46:03;17.20;16.70
820;DHT22;392;48.838;2.322;2023-04-10T12:48:31;17.20;17.00
820;DHT22;392;48.838;2.322;2023-04-10T12:50:58;17.10;17.10
820;DHT22;392;48.838;2.322;2023-04-10T12:53:26;17.10;17.40
820;DHT22;392;48.838;2.322;2023-04-10T12:55:58;17.10;17.90
820;DHT22;392;48.838;2.322;2023-04-10T12:58:27;17.00;17.90
820;DHT22;392;48.838;2.322;2023-04-10T13:00:58;17.00;18.40
820;DHT22;392;48.838;2.322;2023-04-10T13:03:28;17.10;18.80
820;DHT22;392;48.838;2.322;2023-04-10T13:05:55;17.10;18.80
820;DHT22;392;48.838;2.322;2023-04-10T13:08:23;17.30;18.90
820;DHT22;392;48.838;2.322;2023-04-10T13:10:50;17.50;18.70
820;DHT22;392;48.838;2.322;2023-04-10T13:13:19;17.60;18.80
820;DHT22;392;48.838;2.322;2023-04-10T13:15:46;17.50;18.90
820;DHT22;392;48.838;2.322;2023-04-10T13:18:15;17.60;19.30
820;DHT22;392;48.838;2.322;2023-04-10T13:20:42;17.70;19.40
820;DHT22;392;48.838;2.322;2023-04-10T13:23:10;17.80;19.30
820;DHT22;392;48.838;2.322;2023-04-10T13:25:38;17.80;19.30
820;DHT22;392;48.838;2.322;2023-04-10T13:28:07;17.80;20.00
820;DHT22;392;48.838;2.322;2023-04-10T13:30:37;17.80;20.00
820;DHT22;392;48.838;2.322;2023-04-10T13:33:05;17.90;20.30
820;DHT22;392;48.838;2.322;2023-04-10T13:35:34;18.00;20.30
820;DHT22;392;48.838;2.322;2023-04-10T13:38:02;18.10;20.40
820;DHT22;392;48.838;2.322;2023-04-10T13:40:30;18.20;20.40
820;DHT22;392;48.838;2.322;2023-04-10T13:42:58;18.20;20.60
820;DHT22;392;48.838;2.322;2023-04-10T13:45:25;18.20;20.90
820;DHT22;392;48.838;2.322;2023-04-10T13:47:52;18.20;21.30
820;DHT22;392;48.838;2.322;2023-04-10T13:50:20;18.20;21.70
820;DHT22;392;48.838;2.322;2023-04-10T13:52:48;18.20;21.90
820;DHT22;392;48.838;2.322;2023-04-10T13:55:16;18.30;22.20
820;DHT22;392;48.838;2.322;2023-04-10T13:57:43;18.30;22.90
820;DHT22;392;48.838;2.322;2023-04-10T14:00:11;18.30;23.50
820;DHT22;392;48.838;2.322;2023-04-10T14:02:39;18.30;24.30
820;DHT22;392;48.838;2.322;2023-04-10T14:05:07;18.30;24.90
820;DHT22;392;48.838;2.322;2023-04-10T14:07:35;18.20;25.40
820;DHT22;392;48.838;2.322;2023-04-10T14:10:06;18.10;25.90
820;DHT22;392;48.838;2.322;2023-04-10T14:12:34;18.10;26.30
820;DHT22;392;48.838;2.322;2023-04-10T14:15:01;18.00;26.80
820;DHT22;392;48.838;2.322;2023-04-10T14:17:28;17.80;27.10
820;DHT22;392;48.838;2.322;2023-04-10T14:19:55;17.80;27.70
820;DHT22;392;48.838;2.322;2023-04-10T14:22:23;17.80;28.60
820;DHT22;392;48.838;2.322;2023-04-10T14:24:50;17.70;29.40
820;DHT22;392;48.838;2.322;2023-04-10T14:27:18;17.60;30.00
820;DHT22;392;48.838;2.322;2023-04-10T14:29:46;17.60;30.30
820;DHT22;392;48.838;2.322;2023-04-10T14:32:13;17.60;30.70
820;DHT22;392;48.838;2.322;2023-04-10T14:34:41;17.50;31.70
820;DHT22;392;48.838;2.322;2023-04-10T14:37:08;17.40;34.80
820;DHT22;392;48.838;2.322;2023-04-10T14:39:35;17.30;38.00
820;DHT22;392;48.838;2.322;2023-04-10T14:42:02;17.20;39.10
820;DHT22;392;48.838;2.322;2023-04-10T14:44:31;17.20;40.60
820;DHT22;392;48.838;2.322;2023-04-10T14:46:58;17.10;41.30
820;DHT22;392;48.838;2.322;2023-04-10T14:49:26;17.00;42.00
820;DHT22;392;48.838;2.322;2023-04-10T14:51:53;16.90;44.20
820;DHT22;392;48.838;2.322;2023-04-10T14:54:20;16.80;46.90
820;DHT22;392;48.838;2.322;2023-04-10T14:56:49;16.70;49.70
820;DHT22;392;48.838;2.322;2023-04-10T14:59:16;16.60;50.10
820;DHT22;392;48.838;2.322;2023-04-10T15:01:45;16.60;51.30
820;DHT22;392;48.838;2.322;2023-04-10T15:04:12;16.50;52.00
820;DHT22;392;48.838;2.322;2023-04-10T15:06:39;16.50;53.90
820;DHT22;392;48.838;2.322;2023-04-10T15:09:07;16.40;55.20
820;DHT22;392;48.838;2.322;2023-04-10T15:11:34;16.30;57.40
820;DHT22;392;48.838;2.322;2023-04-10T15:14:01;16.20;58.90
820;DHT22;392;48.838;2.322;2023-04-10T15:16:28;16.10;60.80
820;DHT22;392;48.838;2.322;2023-04-10T15:18:57;16.10;62.10
820;DHT22;392;48.838;2.322;2023-04-10T15:21:24;16.00;63.40
820;DHT22;392;48.838;2.322;2023-04-10T15:23:52;16.00;65.10
820;DHT22;392;48.838;2.322;2023-04-10T15:26:20;15.90;65.60
820;DHT22;392;48.838;2.322;2023-04-10T15:28:47;16.00;65.80
820;DHT22;392;48.838;2.322;2023-04-10T15:31:14;15.90;65.90
820;DHT22;392;48.838;2.322;2023-04-10T15:33:41;15.90;65.50
820;DHT22;392;48.838;2.322;2023-04-10T15:36:10;15.80;65.80
820;DHT22;392;48.838;2.322;2023-04-10T15:38:37;15.80;66.10
820;DHT22;392;48.838;2.322;2023-04-10T15:41:09;15.80;65.40
820;DHT22;392;48.838;2.322;2023-04-10T15:43:37;15.80;65.80
820;DHT22;392;48.838;2.322;2023-04-10T15:46:05;15.80;64.80
820;DHT22;392;48.838;2.322;2023-04-10T15:48:32;15.80;64.20
820;DHT22;392;48.838;2.322;2023-04-10T15:51:02;15.80;63.70
820;DHT22;392;48.838;2.322;2023-04-10T15:53:32;15.90;65.10
820;DHT22;392;48.838;2.322;2023-04-10T15:56:01;16.00;65.50
820;DHT22;392;48.838;2.322;2023-04-10T15:58:29;16.00;66.30
820;DHT22;392;48.838;2.322;2023-04-10T16:00:57;16.00;66.80
820;DHT22;392;48.838;2.322;2023-04-10T16:03:24;16.00;67.20
820;DHT22;392;48.838;2.322;2023-04-10T16:05:52;16.00;66.60
820;DHT22;392;48.838;2.322;2023-04-10T16:08:20;16.00;65.10
820;DHT22;392;48.838;2.322;2023-04-10T16:10:50;16.00;64.10
820;DHT22;392;48.838;2.322;2023-04-10T16:13:18;16.00;63.10
820;DHT22;392;48.838;2.322;2023-04-10T16:15:45;16.00;63.10
820;DHT22;392;48.838;2.322;2023-04-10T16:18:13;16.00;63.20
820;DHT22;392;48.838;2.322;2023-04-10T16:20:40;16.00;64.50
820;DHT22;392;48.838;2.322;2023-04-10T16:23:07;16.00;65.60
820;DHT22;392;48.838;2.322;2023-04-10T16:25:35;16.10;65.90
820;DHT22;392;48.838;2.322;2023-04-10T16:28:03;16.10;65.10
820;DHT22;392;48.838;2.322;2023-04-10T16:30:32;16.10;64.70
820;DHT22;392;48.838;2.322;2023-04-10T16:32:59;16.10;66.70
820;DHT22;392;48.838;2.322;2023-04-10T16:35:27;16.10;66.30
820;DHT22;392;48.838;2.322;2023-04-10T16:37:54;16.10;65.70
820;DHT22;392;48.838;2.322;2023-04-10T16:40:22;16.10;66.90
820;DHT22;392;48.838;2.322;2023-04-10T16:42:52;16.10;67.10
820;DHT22;392;48.838;2.322;2023-04-10T16:45:21;16.20;65.70
820;DHT22;392;48.838;2.322;2023-04-10T16:47:48;16.20;65.10
820;DHT22;392;48.838;2.322;2023-04-10T16:50:15;16.20;65.30
820;DHT22;392;48.838;2.322;2023-04-10T16:52:42;16.10;65.50
820;DHT22;392;48.838;2.322;2023-04-10T16:55:10;16.10;66.30
820;DHT22;392;48.838;2.322;2023-04-10T16:57:37;16.00;68.00
820;DHT22;392;48.838;2.322;2023-04-10T17:00:06;15.90;69.30
820;DHT22;392;48.838;2.322;2023-04-10T17:02:35;15.80;70.50